^^
MeteoGriva-Weather Station Historical Data
Daily Summary for January 16, 2021 Units:  Both    English   Metric
Daily Weekly Monthly Yearly Custom
  High: Low: Average:
Temperature: 33.3 °F /  0.7 °C 23.5 °F /  -4.7 °C 28.8 °F /  -1.8 °C
Dew Point: 26.6 °F /  -3 °C 7.5 °F /  -13.6 °C 20.1 °F /  -6.6 °C
Humidity: 96% 47.8% 71%
Wind Speed: 10.6mph /  17km/h - 3mph /  4.8km/h
Wind Gust: 18.8mph /  30.3km/h - -
Wind- - SSE
Pressure: 30 in /  1016.9 hPa 30 in /  1014.2 hPa -
Precipitation: 0 in /  0.0 mm    
Historical Graphs
 
 
Tabular Data for January 16, 2021
Time Temperature Dew Point Pressure Wind Wind Speed Wind Gust Humidity Rainfall Rate (Hourly) solar
00:04 33.3 °F /  0.7 °C 20.3 °F /  -6.5 °C 30in /  1016.9hPa NNW 5.7mph /  9.1km/h 10.3mph /  16.6km/h 59% 0in /  0.0mm 0 W/m2
00:09 33.3 °F /  0.7 °C 20.7 °F /  -6.3 °C 30in /  1016.6hPa North 4.8mph /  7.8km/h 9.6mph /  15.4km/h 60% 0in /  0.0mm 0 W/m2
00:14 33.3 °F /  0.7 °C 20.5 °F /  -6.4 °C 30in /  1016.6hPa North 4.7mph /  7.6km/h 10.5mph /  16.9km/h 59.2% 0in /  0.0mm 0 W/m2
00:19 33.3 °F /  0.7 °C 20.8 °F /  -6.2 °C 30in /  1016.6hPa North 4.5mph /  7.2km/h 8.3mph /  13.4km/h 60% 0in /  0.0mm 0 W/m2
00:24 33.3 °F /  0.7 °C 20.8 °F /  -6.2 °C 30in /  1016.6hPa North 4.2mph /  6.7km/h 8.3mph /  13.4km/h 60% 0in /  0.0mm 0 W/m2
00:29 33.3 °F /  0.7 °C 20.7 °F /  -6.3 °C 30in /  1016.3hPa North 4mph /  6.5km/h 8.3mph /  13.4km/h 59.8% 0in /  0.0mm 0 W/m2
00:34 33.3 °F /  0.7 °C 20.7 °F /  -6.3 °C 30in /  1016.3hPa North 4mph /  6.4km/h 6.7mph /  10.8km/h 59.8% 0in /  0.0mm 0 W/m2
00:39 33.3 °F /  0.7 °C 20.7 °F /  -6.3 °C 30in /  1016.6hPa North 4.3mph /  7km/h 9.8mph /  15.8km/h 59.6% 0in /  0.0mm 0 W/m2
00:44 33.3 °F /  0.7 °C 20.5 °F /  -6.4 °C 30in /  1016.6hPa North 5mph /  8.1km/h 8.7mph /  14km/h 58.8% 0in /  0.0mm 0 W/m2
00:49 33.3 °F /  0.7 °C 20.5 °F /  -6.4 °C 30in /  1016.3hPa North 4.4mph /  7.1km/h 9.6mph /  15.4km/h 59% 0in /  0.0mm 0 W/m2
00:54 33.3 °F /  0.7 °C 20.7 °F /  -6.3 °C 30in /  1016.3hPa North 4.2mph /  6.7km/h 7.8mph /  12.6km/h 59.3% 0in /  0.0mm 0 W/m2
00:59 33.3 °F /  0.7 °C 20.5 °F /  -6.4 °C 30in /  1016.3hPa North 5.1mph /  8.2km/h 9.4mph /  15.1km/h 59% 0in /  0.0mm 0 W/m2
01:04 33.3 °F /  0.7 °C 20.5 °F /  -6.4 °C 30in /  1016.3hPa NNW 5.1mph /  8.2km/h 8.3mph /  13.4km/h 59% 0in /  0.0mm 0 W/m2
01:09 33.3 °F /  0.7 °C 20.5 °F /  -6.4 °C 30in /  1016.3hPa NNW 6.4mph /  10.3km/h 11.2mph /  18km/h 59% 0in /  0.0mm 0 W/m2
01:14 33.3 °F /  0.7 °C 20.5 °F /  -6.4 °C 30in /  1016.3hPa NNW 5.3mph /  8.5km/h 11.2mph /  18km/h 58.8% 0in /  0.0mm 0 W/m2
01:19 33.3 °F /  0.7 °C 20.5 °F /  -6.4 °C 30in /  1016.3hPa NNW 4.4mph /  7.1km/h 10.3mph /  16.6km/h 58.8% 0in /  0.0mm 0 W/m2
01:24 33.3 °F /  0.7 °C 20.7 °F /  -6.3 °C 30in /  1016.3hPa North 4.6mph /  7.4km/h 8.3mph /  13.4km/h 59% 0in /  0.0mm 0 W/m2
01:29 33.3 °F /  0.7 °C 20.7 °F /  -6.3 °C 30in /  1016.3hPa North 4.1mph /  6.6km/h 7.2mph /  11.6km/h 59.2% 0in /  0.0mm 0 W/m2
01:34 33.3 °F /  0.7 °C 20.7 °F /  -6.3 °C 30in /  1016.3hPa NNW 3mph /  4.9km/h 5.6mph /  9km/h 59.6% 0in /  0.0mm 0 W/m2
01:39 33.3 °F /  0.7 °C 21.2 °F /  -6 °C 30in /  1016.3hPa NW 2.6mph /  4.2km/h 6mph /  9.7km/h 60.6% 0in /  0.0mm 0 W/m2
01:44 33.3 °F /  0.7 °C 21.4 °F /  -5.9 °C 30in /  1016.3hPa NNW 4mph /  6.4km/h 7.8mph /  12.6km/h 61.2% 0in /  0.0mm 0 W/m2
01:49 33.1 °F /  0.6 °C 21.6 °F /  -5.8 °C 30in /  1016.3hPa North 4.8mph /  7.8km/h 11.9mph /  19.2km/h 61.8% 0in /  0.0mm 0 W/m2
01:54 33.1 °F /  0.6 °C 21.7 °F /  -5.7 °C 30in /  1016.3hPa North 4mph /  6.5km/h 7.4mph /  11.9km/h 63% 0in /  0.0mm 0 W/m2
01:59 32.9 °F /  0.5 °C 21.7 °F /  -5.7 °C 30in /  1016.3hPa North 3.3mph /  5.3km/h 6.3mph /  10.1km/h 63% 0in /  0.0mm 0 W/m2
02:04 32.9 °F /  0.5 °C 21.9 °F /  -5.6 °C 30in /  1016.3hPa North 1.8mph /  2.9km/h 6.3mph /  10.1km/h 63.6% 0in /  0.0mm 0 W/m2
02:09 32.7 °F /  0.4 °C 22.5 °F /  -5.3 °C 30in /  1016.3hPa NNW 3.2mph /  5.1km/h 6.5mph /  10.5km/h 65.2% 0in /  0.0mm 0 W/m2
02:14 32.5 °F /  0.3 °C 22.8 °F /  -5.1 °C 30in /  1016.3hPa NNW 4.5mph /  7.2km/h 8.1mph /  13km/h 66.8% 0in /  0.0mm 0 W/m2
02:19 32.4 °F /  0.2 °C 23.2 °F /  -4.9 °C 30in /  1016.3hPa North 4.2mph /  6.8km/h 8.1mph /  13km/h 68.4% 0in /  0.0mm 0 W/m2
02:24 32.2 °F /  0.1 °C 23.4 °F /  -4.8 °C 30in /  1016.3hPa North 5.3mph /  8.6km/h 9.8mph /  15.8km/h 69.6% 0in /  0.0mm 0 W/m2
02:29 31.8 °F /  -0.1 °C 23.9 °F /  -4.5 °C 30in /  1016.3hPa North 4.5mph /  7.3km/h 9.6mph /  15.4km/h 72% 0in /  0.0mm 0 W/m2
02:34 31.6 °F /  -0.2 °C 24.3 °F /  -4.3 °C 30in /  1016.3hPa North 4.8mph /  7.8km/h 9.2mph /  14.8km/h 73.6% 0in /  0.0mm 0 W/m2
02:39 31.5 °F /  -0.3 °C 24.3 °F /  -4.3 °C 30in /  1016.3hPa North 4.3mph /  6.9km/h 8.3mph /  13.4km/h 74.8% 0in /  0.0mm 0 W/m2
02:44 31.1 °F /  -0.5 °C 25 °F /  -3.9 °C 30in /  1016.3hPa North 3.6mph /  5.8km/h 9.4mph /  15.1km/h 77.8% 0in /  0.0mm 0 W/m2
02:49 30.7 °F /  -0.7 °C 25.3 °F /  -3.7 °C 30in /  1016.3hPa NNW 4.3mph /  7km/h 9.4mph /  15.1km/h 80% 0in /  0.0mm 0 W/m2
02:54 30.6 °F /  -0.8 °C 25.3 °F /  -3.7 °C 30in /  1016.3hPa North 3.4mph /  5.4km/h 6.9mph /  11.1km/h 81% 0in /  0.0mm 0 W/m2
02:59 30.4 °F /  -0.9 °C 25.2 °F /  -3.8 °C 30in /  1016.3hPa North 3.7mph /  6km/h 8.1mph /  13km/h 80.6% 0in /  0.0mm 0 W/m2
03:04 30.2 °F /  -1 °C 24.4 °F /  -4.2 °C 30in /  1016.3hPa North 4.2mph /  6.7km/h 8.1mph /  13km/h 79% 0in /  0.0mm 0 W/m2
03:09 30.2 °F /  -1 °C 24.6 °F /  -4.1 °C 30in /  1016.3hPa North 3.7mph /  5.9km/h 7.2mph /  11.6km/h 79.6% 0in /  0.0mm 0 W/m2
03:14 30.2 °F /  -1 °C 25.2 °F /  -3.8 °C 30in /  1016.3hPa North 4.1mph /  6.6km/h 6.7mph /  10.8km/h 80.8% 0in /  0.0mm 0 W/m2
03:19 30 °F /  -1.1 °C 25.2 °F /  -3.8 °C 30in /  1016.3hPa North 3.1mph /  5km/h 6.3mph /  10.1km/h 81.6% 0in /  0.0mm 0 W/m2
03:24 30 °F /  -1.1 °C 25.2 °F /  -3.8 °C 30in /  1016.3hPa NNW 3.3mph /  5.3km/h 6.3mph /  10.1km/h 82% 0in /  0.0mm 0 W/m2
03:29 30 °F /  -1.1 °C 25 °F /  -3.9 °C 30in /  1016.3hPa NNW 3.5mph /  5.6km/h 8.5mph /  13.7km/h 81% 0in /  0.0mm 0 W/m2
03:34 30 °F /  -1.1 °C 25 °F /  -3.9 °C 30in /  1016.3hPa North 3.7mph /  5.9km/h 8.3mph /  13.4km/h 81% 0in /  0.0mm 0 W/m2
03:39 30 °F /  -1.1 °C 24.8 °F /  -4 °C 30in /  1016.3hPa NNW 4.6mph /  7.4km/h 8.5mph /  13.7km/h 80.4% 0in /  0.0mm 0 W/m2
03:44 30 °F /  -1.1 °C 24.4 °F /  -4.2 °C 30in /  1016.3hPa NNW 4.3mph /  7km/h 9.6mph /  15.4km/h 79.6% 0in /  0.0mm 0 W/m2
03:49 30.2 °F /  -1 °C 24.3 °F /  -4.3 °C 30in /  1016.3hPa North 4.3mph /  7km/h 9.8mph /  15.8km/h 78.2% 0in /  0.0mm 0 W/m2
03:54 30.2 °F /  -1 °C 24.3 °F /  -4.3 °C 30in /  1016.3hPa North 4.8mph /  7.8km/h 8.5mph /  13.7km/h 77.8% 0in /  0.0mm 0 W/m2
03:59 30.2 °F /  -1 °C 24.4 °F /  -4.2 °C 30in /  1016.3hPa North 3.9mph /  6.2km/h 7.2mph /  11.6km/h 78.6% 0in /  0.0mm 0 W/m2
04:04 30.2 °F /  -1 °C 24.8 °F /  -4 °C 30in /  1015.9hPa North 4.1mph /  6.6km/h 6.3mph /  10.1km/h 80.1% 0in /  0.0mm 0 W/m2
04:09 29.8 °F /  -1.2 °C 25 °F /  -3.9 °C 30in /  1015.9hPa North 3.4mph /  5.5km/h 5.6mph /  9km/h 81.6% 0in /  0.0mm 0 W/m2
04:14 29.8 °F /  -1.2 °C 25 °F /  -3.9 °C 30in /  1015.9hPa North 3.9mph /  6.2km/h 7.6mph /  12.2km/h 82.2% 0in /  0.0mm 0 W/m2
04:19 29.7 °F /  -1.3 °C 24.8 °F /  -4 °C 30in /  1015.9hPa North 3.7mph /  6km/h 6.7mph /  10.8km/h 82.2% 0in /  0.0mm 0 W/m2
04:29 29.7 °F /  -1.3 °C 24.8 °F /  -4 °C 30in /  1015.9hPa North 2.7mph /  4.3km/h 4.7mph /  7.6km/h 82% 0in /  0.0mm 0 W/m2
04:34 29.7 °F /  -1.3 °C 24.8 °F /  -4 °C 30in /  1015.9hPa NNE 2.2mph /  3.6km/h 4mph /  6.4km/h 81.8% 0in /  0.0mm 0 W/m2
04:39 29.7 °F /  -1.3 °C 24.8 °F /  -4 °C 30in /  1015.9hPa NNE 2.5mph /  4.1km/h 3.6mph /  5.8km/h 82% 0in /  0.0mm 0 W/m2
04:44 29.7 °F /  -1.3 °C 24.6 °F /  -4.1 °C 30in /  1015.9hPa NNE 2.2mph /  3.5km/h 4.5mph /  7.2km/h 81.2% 0in /  0.0mm 0 W/m2
04:49 29.7 °F /  -1.3 °C 24.3 °F /  -4.3 °C 30in /  1015.9hPa North 4.3mph /  7km/h 6.9mph /  11.1km/h 80% 0in /  0.0mm 0 W/m2
04:54 29.7 °F /  -1.3 °C 24.3 °F /  -4.3 °C 30in /  1016.3hPa North 3.5mph /  5.7km/h 8.1mph /  13km/h 80.2% 0in /  0.0mm 0 W/m2
04:59 29.5 °F /  -1.4 °C 24.6 °F /  -4.1 °C 30in /  1016.3hPa North 3.5mph /  5.6km/h 7.8mph /  12.6km/h 81.8% 0in /  0.0mm 0 W/m2
05:04 29.3 °F /  -1.5 °C 25.2 °F /  -3.8 °C 30in /  1016.3hPa North 4.2mph /  6.8km/h 7.2mph /  11.6km/h 84.4% 0in /  0.0mm 0 W/m2
05:09 28.9 °F /  -1.7 °C 25.3 °F /  -3.7 °C 30in /  1016.3hPa North 3.5mph /  5.6km/h 6.7mph /  10.8km/h 86.2% 0in /  0.0mm 0 W/m2
05:14 28.8 °F /  -1.8 °C 25.5 °F /  -3.6 °C 30in /  1015.9hPa North 3.3mph /  5.3km/h 5.4mph /  8.7km/h 87.6% 0in /  0.0mm 0 W/m2
05:19 28.6 °F /  -1.9 °C 25.5 °F /  -3.6 °C 30in /  1015.9hPa North 3mph /  4.8km/h 5.8mph /  9.3km/h 88.2% 0in /  0.0mm 0 W/m2
05:24 28.4 °F /  -2 °C 25.5 °F /  -3.6 °C 30in /  1015.9hPa North 3.4mph /  5.4km/h 5.1mph /  8.2km/h 89% 0in /  0.0mm 0 W/m2
05:29 28.4 °F /  -2 °C 25.7 °F /  -3.5 °C 30in /  1015.9hPa NNE 3.4mph /  5.4km/h 5.4mph /  8.7km/h 89.8% 0in /  0.0mm 0 W/m2
05:34 28.2 °F /  -2.1 °C 25.7 °F /  -3.5 °C 30in /  1015.9hPa North 4mph /  6.4km/h 6.3mph /  10.1km/h 90.2% 0in /  0.0mm 0 W/m2
05:39 28.2 °F /  -2.1 °C 25.7 °F /  -3.5 °C 30in /  1015.9hPa NNE 4.3mph /  6.9km/h 7.2mph /  11.6km/h 90.2% 0in /  0.0mm 0 W/m2
05:44 28 °F /  -2.2 °C 25.9 °F /  -3.4 °C 30in /  1015.9hPa North 3.9mph /  6.2km/h 8.1mph /  13km/h 91.2% 0in /  0.0mm 0 W/m2
05:49 28 °F /  -2.2 °C 26.1 °F /  -3.3 °C 30in /  1015.9hPa North 3.7mph /  6km/h 8.1mph /  13km/h 91.8% 0in /  0.0mm 0 W/m2
05:54 27.9 °F /  -2.3 °C 25.9 °F /  -3.4 °C 30in /  1015.9hPa North 3.1mph /  5km/h 6.3mph /  10.1km/h 91.8% 0in /  0.0mm 0 W/m2
05:59 27.9 °F /  -2.3 °C 26.1 °F /  -3.3 °C 30in /  1015.9hPa NNE 3.2mph /  5.1km/h 5.6mph /  9km/h 93% 0in /  0.0mm 0 W/m2
06:04 27.7 °F /  -2.4 °C 25.9 °F /  -3.4 °C 30in /  1015.9hPa North 3.3mph /  5.3km/h 5.1mph /  8.2km/h 93% 0in /  0.0mm 0 W/m2
06:09 27.7 °F /  -2.4 °C 25.9 °F /  -3.4 °C 30in /  1015.9hPa North 3.2mph /  5.2km/h 5.1mph /  8.2km/h 93% 0in /  0.0mm 0 W/m2
06:14 27.5 °F /  -2.5 °C 26.1 °F /  -3.3 °C 30in /  1015.9hPa NNE 2.5mph /  4.1km/h 4.9mph /  7.9km/h 93.8% 0in /  0.0mm 0 W/m2
06:19 27.5 °F /  -2.5 °C 26.1 °F /  -3.3 °C 30in /  1015.9hPa NNE 2.5mph /  4.1km/h 4mph /  6.4km/h 94% 0in /  0.0mm 0 W/m2
06:24 27.5 °F /  -2.5 °C 26.2 °F /  -3.2 °C 30in /  1015.9hPa NNE 2.5mph /  4km/h 4mph /  6.4km/h 95% 0in /  0.0mm 0 W/m2
06:29 27.5 °F /  -2.5 °C 26.2 °F /  -3.2 °C 30in /  1015.9hPa NNE 2.7mph /  4.3km/h 4.7mph /  7.6km/h 95% 0in /  0.0mm 0 W/m2
06:34 27.3 °F /  -2.6 °C 26.1 °F /  -3.3 °C 30in /  1015.6hPa NNE 2.7mph /  4.4km/h 3.8mph /  6.1km/h 95% 0in /  0.0mm 0 W/m2
06:39 27.3 °F /  -2.6 °C 26.2 °F /  -3.2 °C 30in /  1015.9hPa NNE 2.7mph /  4.4km/h 3.8mph /  6.1km/h 95.2% 0in /  0.0mm 0 W/m2
06:44 27.3 °F /  -2.6 °C 26.4 °F /  -3.1 °C 30in /  1015.9hPa NNE 2.3mph /  3.7km/h 3.8mph /  6.1km/h 96% 0in /  0.0mm 0 W/m2
06:49 27.3 °F /  -2.6 °C 26.4 °F /  -3.1 °C 30in /  1015.9hPa North 2.5mph /  4km/h 3.4mph /  5.5km/h 96% 0in /  0.0mm 0 W/m2
06:54 27.3 °F /  -2.6 °C 26.4 °F /  -3.1 °C 30in /  1015.9hPa NNE 2.1mph /  3.4km/h 3.4mph /  5.5km/h 95.8% 0in /  0.0mm 0 W/m2
06:59 27.5 °F /  -2.5 °C 26.2 °F /  -3.2 °C 30in /  1015.9hPa NNE 2.2mph /  3.6km/h 3.1mph /  5km/h 95% 0in /  0.0mm 0 W/m2
07:04 27.5 °F /  -2.5 °C 26.2 °F /  -3.2 °C 30in /  1015.9hPa NNE 2.4mph /  3.9km/h 3.8mph /  6.1km/h 95% 0in /  0.0mm 0 W/m2
07:09 27.5 °F /  -2.5 °C 26.2 °F /  -3.2 °C 30in /  1015.9hPa NE 2.1mph /  3.3km/h 3.6mph /  5.8km/h 95% 0in /  0.0mm 0 W/m2
07:14 27.5 °F /  -2.5 °C 26.2 °F /  -3.2 °C 30in /  1015.9hPa NNE 2.1mph /  3.3km/h 3.8mph /  6.1km/h 95% 0in /  0.0mm 0 W/m2
07:19 27.5 °F /  -2.5 °C 26.2 °F /  -3.2 °C 30in /  1015.9hPa NNE 2mph /  3.2km/h 3.6mph /  5.8km/h 95% 0in /  0.0mm 0 W/m2
07:24 27.7 °F /  -2.4 °C 26.4 °F /  -3.1 °C 30in /  1015.9hPa NNE 2.2mph /  3.6km/h 3.8mph /  6.1km/h 95% 0in /  0.0mm 0 W/m2
07:29 27.7 °F /  -2.4 °C 26.2 °F /  -3.2 °C 30in /  1015.9hPa NNE 2.4mph /  3.9km/h 3.6mph /  5.8km/h 95% 0in /  0.0mm 0 W/m2
07:34 27.5 °F /  -2.5 °C 26.6 °F /  -3 °C 30in /  1015.9hPa NE 2.2mph /  3.5km/h 3.6mph /  5.8km/h 95.9% 0in /  0.0mm 0 W/m2
07:39 27.5 °F /  -2.5 °C 26.6 °F /  -3 °C 30in /  1015.6hPa NNE 2.9mph /  4.6km/h 4.5mph /  7.2km/h 96% 0in /  0.0mm 0 W/m2
07:44 27.5 °F /  -2.5 °C 26.2 °F /  -3.2 °C 30in /  1015.6hPa NNE 2.7mph /  4.3km/h 5.1mph /  8.2km/h 95.3% 0in /  0.0mm 0 W/m2
07:49 27.5 °F /  -2.5 °C 26.2 °F /  -3.2 °C 30in /  1015.6hPa North 2.2mph /  3.6km/h 5.1mph /  8.2km/h 95% 0in /  0.0mm 0 W/m2
07:54 27.5 °F /  -2.5 °C 26.2 °F /  -3.2 °C 30in /  1015.6hPa North 2.5mph /  4.1km/h 4mph /  6.4km/h 94.7% 0in /  0.0mm 0 W/m2
07:59 27.5 °F /  -2.5 °C 26.1 °F /  -3.3 °C 30in /  1015.6hPa NE 3mph /  4.8km/h 4.3mph /  6.9km/h 94% 0in /  0.0mm 0 W/m2
08:04 27.5 °F /  -2.5 °C 26.1 °F /  -3.3 °C 30in /  1015.6hPa NE 2.5mph /  4.1km/h 4.5mph /  7.2km/h 94.1% 0in /  0.0mm 2 W/m2
08:09 27.5 °F /  -2.5 °C 26.1 °F /  -3.3 °C 30in /  1015.6hPa NNE 2.9mph /  4.7km/h 5.4mph /  8.7km/h 94.3% 0in /  0.0mm 2 W/m2
08:14 27.5 °F /  -2.5 °C 26.1 °F /  -3.3 °C 30in /  1015.6hPa NNE 2.7mph /  4.4km/h 4.9mph /  7.9km/h 93.7% 0in /  0.0mm 2 W/m2
08:19 27.7 °F /  -2.4 °C 25.9 °F /  -3.4 °C 30in /  1015.6hPa North 2.3mph /  3.7km/h 5.8mph /  9.3km/h 93% 0in /  0.0mm 4 W/m2
08:24 27.7 °F /  -2.4 °C 25.9 °F /  -3.4 °C 30in /  1015.6hPa NNE 2.8mph /  4.5km/h 6mph /  9.7km/h 92.7% 0in /  0.0mm 5 W/m2
08:29 27.7 °F /  -2.4 °C 25.2 °F /  -3.8 °C 30in /  1015.6hPa NNE 3mph /  4.8km/h 6mph /  9.7km/h 89.8% 0in /  0.0mm 6 W/m2
08:34 27.9 °F /  -2.3 °C 25.3 °F /  -3.7 °C 30in /  1015.6hPa NE 2.1mph /  3.3km/h 5.4mph /  8.7km/h 90% 0in /  0.0mm 7 W/m2
08:39 27.9 °F /  -2.3 °C 25.3 °F /  -3.7 °C 30in /  1015.6hPa NE 1.4mph /  2.3km/h 3.6mph /  5.8km/h 90.6% 0in /  0.0mm 8 W/m2
08:44 27.9 °F /  -2.3 °C 25.2 °F /  -3.8 °C 30in /  1015.6hPa NNE 1.7mph /  2.7km/h 4.5mph /  7.2km/h 89.8% 0in /  0.0mm 9 W/m2
08:49 27.9 °F /  -2.3 °C 24.6 °F /  -4.1 °C 30in /  1015.9hPa NE 1.4mph /  2.2km/h 4.5mph /  7.2km/h 87.2% 0in /  0.0mm 9 W/m2
08:54 28 °F /  -2.2 °C 24.8 °F /  -4 °C 30in /  1015.9hPa ENE 0.9mph /  1.4km/h 3.8mph /  6.1km/h 87.6% 0in /  0.0mm 9 W/m2
08:59 28.2 °F /  -2.1 °C 25.3 °F /  -3.7 °C 30in /  1015.9hPa SE 1.4mph /  2.3km/h 3.8mph /  6.1km/h 88.9% 0in /  0.0mm 10 W/m2
09:04 28 °F /  -2.2 °C 25.5 °F /  -3.6 °C 30in /  1015.9hPa East 0.9mph /  1.5km/h 3.1mph /  5km/h 90% 0in /  0.0mm 13 W/m2
09:09 28 °F /  -2.2 °C 25 °F /  -3.9 °C 30in /  1015.9hPa NE 2.1mph /  3.3km/h 5.8mph /  9.3km/h 87.9% 0in /  0.0mm 16 W/m2
09:14 28.2 °F /  -2.1 °C 24.3 °F /  -4.3 °C 30in /  1015.9hPa NNE 3mph /  4.8km/h 7.2mph /  11.6km/h 84.1% 0in /  0.0mm 16 W/m2
09:19 28.6 °F /  -1.9 °C 24.1 °F /  -4.4 °C 30in /  1015.9hPa NE 2.8mph /  4.5km/h 5.8mph /  9.3km/h 82.8% 0in /  0.0mm 16 W/m2
09:24 28.8 °F /  -1.8 °C 24.6 °F /  -4.1 °C 30in /  1015.9hPa NE 1.5mph /  2.4km/h 4.3mph /  6.9km/h 84.1% 0in /  0.0mm 20 W/m2
09:29 28.8 °F /  -1.8 °C 24.6 °F /  -4.1 °C 30in /  1016.3hPa NE 1.7mph /  2.7km/h 3.6mph /  5.8km/h 84.4% 0in /  0.0mm 20 W/m2
09:34 28.9 °F /  -1.7 °C 24.1 °F /  -4.4 °C 30in /  1016.3hPa NE 1.9mph /  3.1km/h 3.4mph /  5.5km/h 81.8% 0in /  0.0mm 21 W/m2
09:39 29.1 °F /  -1.6 °C 23.4 °F /  -4.8 °C 30in /  1016.3hPa North 2.5mph /  4km/h 6.3mph /  10.1km/h 79.2% 0in /  0.0mm 28 W/m2
09:49 29.1 °F /  -1.6 °C 23.4 °F /  -4.8 °C 30in /  1016.3hPa North 1.1mph /  1.7km/h 4mph /  6.4km/h 79% 0in /  0.0mm 30 W/m2
09:54 29.3 °F /  -1.5 °C 22.8 °F /  -5.1 °C 30in /  1016.3hPa NNE 0.9mph /  1.4km/h 2.9mph /  4.7km/h 76.9% 0in /  0.0mm 27 W/m2
09:59 29.3 °F /  -1.5 °C 22.8 °F /  -5.1 °C 30in /  1016.3hPa ENE 1.3mph /  2.1km/h 2.9mph /  4.7km/h 76.6% 0in /  0.0mm 25 W/m2
10:04 29.5 °F /  -1.4 °C 23.5 °F /  -4.7 °C 30in /  1016.3hPa NE 1.8mph /  2.9km/h 5.8mph /  9.3km/h 78.2% 0in /  0.0mm 27 W/m2
10:09 29.3 °F /  -1.5 °C 23.5 °F /  -4.7 °C 30in /  1016.3hPa NNE 1.2mph /  2km/h 5.8mph /  9.3km/h 78.5% 0in /  0.0mm 29 W/m2
10:14 29.5 °F /  -1.4 °C 23.4 °F /  -4.8 °C 30in /  1016.3hPa North 1.4mph /  2.2km/h 3.4mph /  5.5km/h 77.8% 0in /  0.0mm 32 W/m2
10:19 29.5 °F /  -1.4 °C 23.5 °F /  -4.7 °C 30in /  1016.6hPa NE 1.1mph /  1.7km/h 3.1mph /  5km/h 78.4% 0in /  0.0mm 34 W/m2
10:24 29.7 °F /  -1.3 °C 23.5 °F /  -4.7 °C 30in /  1016.6hPa NE 1.3mph /  2.1km/h 3.8mph /  6.1km/h 78% 0in /  0.0mm 35 W/m2
10:29 29.7 °F /  -1.3 °C 22.8 °F /  -5.1 °C 30in /  1016.6hPa North 1.7mph /  2.7km/h 3.8mph /  6.1km/h 75.9% 0in /  0.0mm 38 W/m2
10:34 29.7 °F /  -1.3 °C 23.2 °F /  -4.9 °C 30in /  1016.3hPa North 1.6mph /  2.6km/h 3.8mph /  6.1km/h 76.5% 0in /  0.0mm 40 W/m2
10:39 29.7 °F /  -1.3 °C 23.4 °F /  -4.8 °C 30in /  1016.3hPa NNE 1.7mph /  2.7km/h 3.8mph /  6.1km/h 76.8% 0in /  0.0mm 38 W/m2
10:44 29.8 °F /  -1.2 °C 23.5 °F /  -4.7 °C 30in /  1016.3hPa North 2.7mph /  4.3km/h 5.6mph /  9km/h 77.1% 0in /  0.0mm 40 W/m2
10:49 29.7 °F /  -1.3 °C 23 °F /  -5 °C 30in /  1016.3hPa North 5.5mph /  8.8km/h 11mph /  17.7km/h 76.2% 0in /  0.0mm 44 W/m2
10:54 29.3 °F /  -1.5 °C 22.6 °F /  -5.2 °C 30in /  1016.3hPa North 4mph /  6.4km/h 11mph /  17.7km/h 75.9% 0in /  0.0mm 46 W/m2
10:59 29.1 °F /  -1.6 °C 22.6 °F /  -5.2 °C 30in /  1016.3hPa North 3.3mph /  5.3km/h 6.7mph /  10.8km/h 76.6% 0in /  0.0mm 50 W/m2
11:04 29.1 °F /  -1.6 °C 22.3 °F /  -5.4 °C 30in /  1016.3hPa North 2.8mph /  4.5km/h 5.8mph /  9.3km/h 75% 0in /  0.0mm 54 W/m2
11:09 29.5 °F /  -1.4 °C 21.9 °F /  -5.6 °C 30in /  1016.3hPa North 3.8mph /  6.1km/h 9.6mph /  15.4km/h 73.2% 0in /  0.0mm 54 W/m2
11:14 29.5 °F /  -1.4 °C 21.7 °F /  -5.7 °C 30in /  1016.3hPa North 3.8mph /  6.1km/h 6.7mph /  10.8km/h 72.7% 0in /  0.0mm 51 W/m2
11:19 29.5 °F /  -1.4 °C 21.6 °F /  -5.8 °C 30in /  1016.3hPa NNE 3.8mph /  6.1km/h 6.7mph /  10.8km/h 71.9% 0in /  0.0mm 55 W/m2
11:24 29.5 °F /  -1.4 °C 21.6 °F /  -5.8 °C 30in /  1015.9hPa North 2.8mph /  4.5km/h 6mph /  9.7km/h 72.2% 0in /  0.0mm 55 W/m2
11:29 29.7 °F /  -1.3 °C 21.7 °F /  -5.7 °C 30in /  1015.9hPa NNW 2.5mph /  4.1km/h 5.8mph /  9.3km/h 72.1% 0in /  0.0mm 49 W/m2
11:34 29.7 °F /  -1.3 °C 21.6 °F /  -5.8 °C 30in /  1015.9hPa North 3.5mph /  5.6km/h 8.9mph /  14.3km/h 71.7% 0in /  0.0mm 47 W/m2
11:39 29.7 °F /  -1.3 °C 21.6 °F /  -5.8 °C 30in /  1015.9hPa North 4.2mph /  6.8km/h 9.2mph /  14.8km/h 71.6% 0in /  0.0mm 49 W/m2
11:44 29.7 °F /  -1.3 °C 20.8 °F /  -6.2 °C 30in /  1015.9hPa North 3.4mph /  5.5km/h 6.7mph /  10.8km/h 69.6% 0in /  0.0mm 55 W/m2
11:49 29.8 °F /  -1.2 °C 21.2 °F /  -6 °C 30in /  1015.9hPa North 2mph /  3.2km/h 4.3mph /  6.9km/h 70% 0in /  0.0mm 58 W/m2
11:54 29.8 °F /  -1.2 °C 21.6 °F /  -5.8 °C 30in /  1015.6hPa North 2.9mph /  4.6km/h 6.7mph /  10.8km/h 70.6% 0in /  0.0mm 58 W/m2
11:59 30 °F /  -1.1 °C 21.9 °F /  -5.6 °C 30in /  1015.6hPa North 3.9mph /  6.2km/h 8.5mph /  13.7km/h 71.7% 0in /  0.0mm 60 W/m2
12:04 30 °F /  -1.1 °C 22.6 °F /  -5.2 °C 30in /  1015.6hPa North 4mph /  6.4km/h 8.5mph /  13.7km/h 73.4% 0in /  0.0mm 60 W/m2
12:09 29.7 °F /  -1.3 °C 23.5 °F /  -4.7 °C 30in /  1015.2hPa North 3.3mph /  5.3km/h 8.1mph /  13km/h 77.7% 0in /  0.0mm 69 W/m2
12:14 29.5 °F /  -1.4 °C 23.7 °F /  -4.6 °C 30in /  1015.2hPa North 3.6mph /  5.8km/h 5.8mph /  9.3km/h 79% 0in /  0.0mm 73 W/m2
12:19 29.3 °F /  -1.5 °C 24.1 °F /  -4.4 °C 30in /  1015.6hPa North 3.4mph /  5.5km/h 5.6mph /  9km/h 80.4% 0in /  0.0mm 70 W/m2
12:24 29.3 °F /  -1.5 °C 24.1 °F /  -4.4 °C 30in /  1015.6hPa NNE 3.4mph /  5.4km/h 5.8mph /  9.3km/h 80.6% 0in /  0.0mm 65 W/m2
12:29 29.3 °F /  -1.5 °C 24.3 °F /  -4.3 °C 30in /  1015.6hPa NNE 4.4mph /  7.1km/h 7.6mph /  12.2km/h 80.9% 0in /  0.0mm 67 W/m2
12:34 29.3 °F /  -1.5 °C 23.5 °F /  -4.7 °C 30in /  1015.6hPa North 4.8mph /  7.8km/h 8.9mph /  14.3km/h 78.6% 0in /  0.0mm 68 W/m2
12:39 29.1 °F /  -1.6 °C 23.2 °F /  -4.9 °C 30in /  1015.2hPa NNE 4.9mph /  7.9km/h 10.1mph /  16.3km/h 77.7% 0in /  0.0mm 73 W/m2
12:44 29.1 °F /  -1.6 °C 22.8 °F /  -5.1 °C 30in /  1015.2hPa North 5mph /  8.1km/h 10.1mph /  16.3km/h 77.1% 0in /  0.0mm 82 W/m2
12:49 29.1 °F /  -1.6 °C 23 °F /  -5 °C 30in /  1015.2hPa North 3.7mph /  5.9km/h 6.9mph /  11.1km/h 77.4% 0in /  0.0mm 84 W/m2
12:54 29.5 °F /  -1.4 °C 23 °F /  -5 °C 30in /  1015.2hPa North 2.3mph /  3.7km/h 6.7mph /  10.8km/h 76.7% 0in /  0.0mm 84 W/m2
12:59 29.8 °F /  -1.2 °C 22.1 °F /  -5.5 °C 30in /  1015.2hPa North 3.5mph /  5.6km/h 6.5mph /  10.5km/h 72.8% 0in /  0.0mm 82 W/m2
13:04 30 °F /  -1.1 °C 21.6 °F /  -5.8 °C 30in /  1015.2hPa North 3.4mph /  5.5km/h 6.3mph /  10.1km/h 70.3% 0in /  0.0mm 77 W/m2
13:09 30 °F /  -1.1 °C 21.2 °F /  -6 °C 30in /  1014.9hPa North 3.1mph /  5km/h 5.8mph /  9.3km/h 69.4% 0in /  0.0mm 71 W/m2
13:14 30 °F /  -1.1 °C 21.7 °F /  -5.7 °C 30in /  1014.9hPa North 2.4mph /  3.9km/h 4.3mph /  6.9km/h 70.6% 0in /  0.0mm 68 W/m2
13:19 30.4 °F /  -0.9 °C 21.4 °F /  -5.9 °C 30in /  1014.9hPa North 2.6mph /  4.2km/h 5.4mph /  8.7km/h 69.4% 0in /  0.0mm 66 W/m2
13:24 30.4 °F /  -0.9 °C 21 °F /  -6.1 °C 30in /  1014.9hPa North 2.4mph /  3.8km/h 5.4mph /  8.7km/h 68% 0in /  0.0mm 63 W/m2
13:29 30.6 °F /  -0.8 °C 21.2 °F /  -6 °C 30in /  1014.6hPa North 2.4mph /  3.9km/h 5.4mph /  8.7km/h 68.2% 0in /  0.0mm 63 W/m2
13:34 30.6 °F /  -0.8 °C 21.4 °F /  -5.9 °C 30in /  1014.6hPa North 2.5mph /  4.1km/h 5.1mph /  8.2km/h 68.4% 0in /  0.0mm 62 W/m2
13:39 30.6 °F /  -0.8 °C 21.2 °F /  -6 °C 30in /  1014.6hPa North 2.7mph /  4.3km/h 5.4mph /  8.7km/h 68% 0in /  0.0mm 67 W/m2
13:44 30.7 °F /  -0.7 °C 20.8 °F /  -6.2 °C 30in /  1014.6hPa NNE 3.4mph /  5.5km/h 7.6mph /  12.2km/h 66.2% 0in /  0.0mm 69 W/m2
13:49 30.7 °F /  -0.7 °C 20.8 °F /  -6.2 °C 30in /  1014.6hPa North 3.1mph /  5km/h 7.6mph /  12.2km/h 66.6% 0in /  0.0mm 69 W/m2
13:54 30.6 °F /  -0.8 °C 20.1 °F /  -6.6 °C 30in /  1014.6hPa North 4.3mph /  6.9km/h 7.2mph /  11.6km/h 64.6% 0in /  0.0mm 64 W/m2
13:59 30.6 °F /  -0.8 °C 19.6 °F /  -6.9 °C 30in /  1014.6hPa North 3.2mph /  5.2km/h 8.3mph /  13.4km/h 63.4% 0in /  0.0mm 61 W/m2
14:04 30.6 °F /  -0.8 °C 19.4 °F /  -7 °C 30in /  1014.6hPa North 2.6mph /  4.2km/h 6.9mph /  11.1km/h 62.6% 0in /  0.0mm 64 W/m2
14:09 30.7 °F /  -0.7 °C 18.9 °F /  -7.3 °C 30in /  1014.2hPa North 4.5mph /  7.2km/h 9.2mph /  14.8km/h 60.8% 0in /  0.0mm 66 W/m2
14:14 30.7 °F /  -0.7 °C 18.3 °F /  -7.6 °C 30in /  1014.2hPa North 4.4mph /  7.1km/h 9.2mph /  14.8km/h 59.6% 0in /  0.0mm 66 W/m2
14:19 30.7 °F /  -0.7 °C 19.6 °F /  -6.9 °C 30in /  1014.2hPa North 5.3mph /  8.5km/h 11mph /  17.7km/h 63% 0in /  0.0mm 64 W/m2
14:24 30.6 °F /  -0.8 °C 20.1 °F /  -6.6 °C 30in /  1014.2hPa North 4.7mph /  7.5km/h 10.1mph /  16.3km/h 64.6% 0in /  0.0mm 62 W/m2
14:29 30.6 °F /  -0.8 °C 20.7 °F /  -6.3 °C 30in /  1014.2hPa North 2.1mph /  3.4km/h 6.7mph /  10.8km/h 65.8% 0in /  0.0mm 58 W/m2
14:34 30.7 °F /  -0.7 °C 20.5 °F /  -6.4 °C 30in /  1014.2hPa North 3.7mph /  5.9km/h 8.1mph /  13km/h 65.4% 0in /  0.0mm 55 W/m2
14:39 30.7 °F /  -0.7 °C 19.9 °F /  -6.7 °C 30in /  1014.2hPa North 4mph /  6.4km/h 8.1mph /  13km/h 64% 0in /  0.0mm 51 W/m2
14:44 30.7 °F /  -0.7 °C 19.8 °F /  -6.8 °C 30in /  1014.2hPa North 2.7mph /  4.4km/h 6.7mph /  10.8km/h 63.4% 0in /  0.0mm 47 W/m2
14:49 30.7 °F /  -0.7 °C 20.1 °F /  -6.6 °C 30in /  1014.6hPa North 2.6mph /  4.2km/h 6.7mph /  10.8km/h 64.4% 0in /  0.0mm 46 W/m2
14:59 30.9 °F /  -0.6 °C 21.2 °F /  -6 °C 30in /  1014.2hPa North 0.9mph /  1.4km/h 3.1mph /  5km/h 67% 0in /  0.0mm 47 W/m2
15:04 31.1 °F /  -0.5 °C 21 °F /  -6.1 °C 30in /  1014.2hPa NE 0.4mph /  0.6km/h 2.9mph /  4.7km/h 65.8% 0in /  0.0mm 43 W/m2
15:09 31.1 °F /  -0.5 °C 21 °F /  -6.1 °C 30in /  1014.2hPa NW 0.4mph /  0.7km/h 3.1mph /  5km/h 66.2% 0in /  0.0mm 50 W/m2
15:14 31.3 °F /  -0.4 °C 20.3 °F /  -6.5 °C 30in /  1014.2hPa ENE 1.1mph /  1.8km/h 3.1mph /  5km/h 63.4% 0in /  0.0mm 53 W/m2
15:19 31.3 °F /  -0.4 °C 19.9 °F /  -6.7 °C 30in /  1014.2hPa ENE 1.8mph /  2.9km/h 3.1mph /  5km/h 62.4% 0in /  0.0mm 53 W/m2
15:24 31.3 °F /  -0.4 °C 21.6 °F /  -5.8 °C 30in /  1014.2hPa East 0.9mph /  1.4km/h 2.9mph /  4.7km/h 67% 0in /  0.0mm 49 W/m2
15:29 31.3 °F /  -0.4 °C 21.4 °F /  -5.9 °C 30in /  1014.2hPa West 1.1mph /  1.8km/h 3.1mph /  5km/h 66.4% 0in /  0.0mm 51 W/m2
15:34 31.3 °F /  -0.4 °C 20.5 °F /  -6.4 °C 30in /  1014.2hPa East 1.3mph /  2.1km/h 3.4mph /  5.5km/h 64% 0in /  0.0mm 55 W/m2
15:39 31.3 °F /  -0.4 °C 21 °F /  -6.1 °C 30in /  1014.2hPa East 1.1mph /  1.8km/h 2.9mph /  4.7km/h 65.3% 0in /  0.0mm 54 W/m2
15:44 31.1 °F /  -0.5 °C 21 °F /  -6.1 °C 30in /  1014.6hPa North 0.1mph /  0.2km/h 2.9mph /  4.7km/h 66% 0in /  0.0mm 55 W/m2
15:49 31.1 °F /  -0.5 °C 21 °F /  -6.1 °C 30in /  1014.6hPa ENE 0.4mph /  0.7km/h 2.9mph /  4.7km/h 66.2% 0in /  0.0mm 51 W/m2
15:54 31.1 °F /  -0.5 °C 21 °F /  -6.1 °C 30in /  1014.6hPa WNW 0.6mph /  0.9km/h 2.9mph /  4.7km/h 66.2% 0in /  0.0mm 51 W/m2
15:59 31.1 °F /  -0.5 °C 20.8 °F /  -6.2 °C 30in /  1014.6hPa SSW 1.1mph /  1.7km/h 2.9mph /  4.7km/h 65.4% 0in /  0.0mm 52 W/m2
16:04 31.1 °F /  -0.5 °C 21 °F /  -6.1 °C 30in /  1014.6hPa SSE 0.8mph /  1.3km/h 3.4mph /  5.5km/h 66% 0in /  0.0mm 52 W/m2
16:09 31.1 °F /  -0.5 °C 20.7 °F /  -6.3 °C 30in /  1014.6hPa NE 0.7mph /  1.1km/h 2.9mph /  4.7km/h 65% 0in /  0.0mm 43 W/m2
16:14 31.3 °F /  -0.4 °C 20.8 °F /  -6.2 °C 30in /  1014.6hPa ESE 1.9mph /  3.1km/h 5.8mph /  9.3km/h 65.2% 0in /  0.0mm 38 W/m2
16:19 31.1 °F /  -0.5 °C 22.3 °F /  -5.4 °C 30in /  1014.6hPa SSE 2.3mph /  3.7km/h 5.8mph /  9.3km/h 69.8% 0in /  0.0mm 34 W/m2
16:24 30.7 °F /  -0.7 °C 22.8 °F /  -5.1 °C 30in /  1014.6hPa ESE 1.9mph /  3km/h 5.4mph /  8.7km/h 71.8% 0in /  0.0mm 31 W/m2
16:29 30.6 °F /  -0.8 °C 22.6 °F /  -5.2 °C 30in /  1014.6hPa ESE 3.2mph /  5.2km/h 6.7mph /  10.8km/h 72.2% 0in /  0.0mm 33 W/m2
16:34 30.4 °F /  -0.9 °C 23 °F /  -5 °C 30in /  1014.6hPa East 2.8mph /  4.5km/h 6.7mph /  10.8km/h 73.4% 0in /  0.0mm 33 W/m2
16:44 30.4 °F /  -0.9 °C 15.6 °F /  -9.1 °C 30in /  1014.6hPa North 1.6mph /  2.6km/h 4.3mph /  6.9km/h 54% 0in /  0.0mm 26 W/m2
16:49 30.4 °F /  -0.9 °C 15.1 °F /  -9.4 °C 30in /  1014.6hPa NE 1.1mph /  1.7km/h 4.3mph /  6.9km/h 52.8% 0in /  0.0mm 22 W/m2
16:59 30.2 °F /  -1 °C 15.1 °F /  -9.4 °C 30in /  1014.6hPa North 3.5mph /  5.7km/h 6.3mph /  10.1km/h 52.8% 0in /  0.0mm 15 W/m2
17:04 30 °F /  -1.1 °C 15.1 °F /  -9.4 °C 30in /  1014.6hPa North 0.4mph /  0.7km/h 4.9mph /  7.9km/h 53.4% 0in /  0.0mm 13 W/m2
17:09 30 °F /  -1.1 °C 18.5 °F /  -7.5 °C 30in /  1014.9hPa South 1.3mph /  2.1km/h 4mph /  6.4km/h 61.8% 0in /  0.0mm 11 W/m2
17:14 29.8 °F /  -1.2 °C 21.4 °F /  -5.9 °C 30in /  1014.9hPa SSW 2.4mph /  3.8km/h 4.9mph /  7.9km/h 70% 0in /  0.0mm 9 W/m2
17:19 29.7 °F /  -1.3 °C 21.9 °F /  -5.6 °C 30in /  1014.9hPa SSE 1.9mph /  3km/h 3.8mph /  6.1km/h 72.4% 0in /  0.0mm 6 W/m2
17:24 29.5 °F /  -1.4 °C 22.3 °F /  -5.4 °C 30in /  1015.2hPa SSE 0.9mph /  1.5km/h 3.6mph /  5.8km/h 73.8% 0in /  0.0mm 4 W/m2
17:29 29.5 °F /  -1.4 °C 22.3 °F /  -5.4 °C 30in /  1015.2hPa East 1.7mph /  2.8km/h 3.6mph /  5.8km/h 74.3% 0in /  0.0mm 3 W/m2
17:34 29.1 °F /  -1.6 °C 21.9 °F /  -5.6 °C 30in /  1015.2hPa ENE 2.5mph /  4km/h 4.5mph /  7.2km/h 73.6% 0in /  0.0mm 2 W/m2
17:39 28.9 °F /  -1.7 °C 19.6 °F /  -6.9 °C 30in /  1015.2hPa NE 1.7mph /  2.8km/h 4.5mph /  7.2km/h 67.6% 0in /  0.0mm 0 W/m2
17:44 28.9 °F /  -1.7 °C 14.4 °F /  -9.8 °C 30in /  1015.2hPa NNE 1.8mph /  2.9km/h 4.3mph /  6.9km/h 54% 0in /  0.0mm 0 W/m2
17:49 28.8 °F /  -1.8 °C 13.6 °F /  -10.2 °C 30in /  1015.2hPa East 2.6mph /  4.2km/h 4.7mph /  7.6km/h 52.7% 0in /  0.0mm 0 W/m2
17:54 28.6 °F /  -1.9 °C 13.8 °F /  -10.1 °C 30in /  1015.2hPa East 2.4mph /  3.8km/h 4.7mph /  7.6km/h 53.6% 0in /  0.0mm 0 W/m2
17:59 28.4 °F /  -2 °C 12.7 °F /  -10.7 °C 30in /  1015.2hPa ENE 0.7mph /  1.2km/h 3.1mph /  5km/h 51.2% 0in /  0.0mm 0 W/m2
18:04 28.2 °F /  -2.1 °C 13.1 °F /  -10.5 °C 30in /  1015.2hPa ESE 0.7mph /  1.1km/h 4.5mph /  7.2km/h 52.6% 0in /  0.0mm 0 W/m2
18:09 28 °F /  -2.2 °C 14.7 °F /  -9.6 °C 30in /  1015.2hPa SW 0.2mph /  0.4km/h 2.2mph /  3.5km/h 57% 0in /  0.0mm 0 W/m2
18:14 27.7 °F /  -2.4 °C 15.4 °F /  -9.2 °C 30in /  1015.2hPa SW 0.5mph /  0.8km/h 3.4mph /  5.5km/h 59.4% 0in /  0.0mm 0 W/m2
18:19 27.3 °F /  -2.6 °C 16.3 °F /  -8.7 °C 30in /  1015.6hPa East 0.4mph /  0.6km/h 2.5mph /  4km/h 62.7% 0in /  0.0mm 0 W/m2
18:24 27.1 °F /  -2.7 °C 18.5 °F /  -7.5 °C 30in /  1015.6hPa NW 0.2mph /  0.4km/h 1.8mph /  2.9km/h 69.4% 0in /  0.0mm 0 W/m2
18:29 27 °F /  -2.8 °C 21.2 °F /  -6 °C 30in /  1015.9hPa North 0.7mph /  1.2km/h 3.1mph /  5km/h 78.5% 0in /  0.0mm 0 W/m2
18:34 26.8 °F /  -2.9 °C 21.9 °F /  -5.6 °C 30in /  1015.9hPa North 0.7mph /  1.1km/h 3.6mph /  5.8km/h 81.5% 0in /  0.0mm 0 W/m2
18:38 26.6 °F /  -3 °C 21.9 °F /  -5.6 °C 30in /  1015.9hPa ENE 0.5mph /  0.8km/h 2mph /  3.2km/h 82% 0in /  0.0mm 0 W/m2
18:44 26.6 °F /  -3 °C 21.4 °F /  -5.9 °C 30in /  1015.9hPa NE 1.1mph /  1.8km/h 5.1mph /  8.2km/h 80.4% 0in /  0.0mm 0 W/m2
18:49 26.4 °F /  -3.1 °C 20.1 °F /  -6.6 °C 30in /  1015.9hPa NNE 1.7mph /  2.8km/h 3.6mph /  5.8km/h 77% 0in /  0.0mm 0 W/m2
18:54 26.4 °F /  -3.1 °C 17.4 °F /  -8.1 °C 30in /  1015.9hPa North 3.9mph /  6.2km/h 9.2mph /  14.8km/h 68.6% 0in /  0.0mm 0 W/m2
18:59 26.2 °F /  -3.2 °C 11.8 °F /  -11.2 °C 30in /  1015.9hPa North 3.8mph /  6.1km/h 9.2mph /  14.8km/h 53.8% 0in /  0.0mm 0 W/m2
19:04 26.2 °F /  -3.2 °C 11.5 °F /  -11.4 °C 30in /  1015.9hPa NNW 3.2mph /  5.1km/h 8.1mph /  13km/h 53.2% 0in /  0.0mm 0 W/m2
19:09 26.1 °F /  -3.3 °C 13.3 °F /  -10.4 °C 30in /  1015.9hPa NNW 1.6mph /  2.6km/h 4.7mph /  7.6km/h 58% 0in /  0.0mm 0 W/m2
19:14 25.5 °F /  -3.6 °C 15.3 °F /  -9.3 °C 30in /  1015.9hPa North 0.9mph /  1.5km/h 2.7mph /  4.3km/h 64.6% 0in /  0.0mm 0 W/m2
19:19 25.3 °F /  -3.7 °C 15.4 °F /  -9.2 °C 30in /  1015.9hPa North 1.6mph /  2.5km/h 3.1mph /  5km/h 65.7% 0in /  0.0mm 0 W/m2
19:24 25.2 °F /  -3.8 °C 14.4 °F /  -9.8 °C 30in /  1015.9hPa NNW 2.1mph /  3.3km/h 4.9mph /  7.9km/h 62.9% 0in /  0.0mm 0 W/m2
19:29 25.2 °F /  -3.8 °C 13.1 °F /  -10.5 °C 30in /  1015.9hPa North 3.2mph /  5.2km/h 7.6mph /  12.2km/h 59.4% 0in /  0.0mm 0 W/m2
19:34 25.2 °F /  -3.8 °C 11.3 °F /  -11.5 °C 30in /  1015.9hPa North 4.7mph /  7.5km/h 7.8mph /  12.6km/h 54.8% 0in /  0.0mm 0 W/m2
19:39 25.3 °F /  -3.7 °C 11.5 °F /  -11.4 °C 30in /  1015.9hPa NNW 3.6mph /  5.8km/h 6.9mph /  11.1km/h 55% 0in /  0.0mm 0 W/m2
19:44 25.2 °F /  -3.8 °C 12 °F /  -11.1 °C 30in /  1015.9hPa NNW 2.3mph /  3.7km/h 5.1mph /  8.2km/h 56.8% 0in /  0.0mm 0 W/m2
19:49 25.2 °F /  -3.8 °C 11.1 °F /  -11.6 °C 30in /  1015.9hPa NNW 2.2mph /  3.5km/h 5.1mph /  8.2km/h 54.4% 0in /  0.0mm 0 W/m2
19:54 25.2 °F /  -3.8 °C 11.1 °F /  -11.6 °C 30in /  1015.9hPa North 2.9mph /  4.7km/h 8.1mph /  13km/h 54.4% 0in /  0.0mm 0 W/m2
19:59 25.2 °F /  -3.8 °C 12.2 °F /  -11 °C 30in /  1015.9hPa NNW 1.8mph /  2.9km/h 4.9mph /  7.9km/h 57.4% 0in /  0.0mm 0 W/m2
20:04 24.8 °F /  -4 °C 12.6 °F /  -10.8 °C 30in /  1016.3hPa NNW 2.1mph /  3.4km/h 5.6mph /  9km/h 58.6% 0in /  0.0mm 0 W/m2
20:09 24.6 °F /  -4.1 °C 12.9 °F /  -10.6 °C 30in /  1016.3hPa NNW 1.1mph /  1.7km/h 5.1mph /  8.2km/h 60.4% 0in /  0.0mm 0 W/m2
20:14 24.4 °F /  -4.2 °C 11.8 °F /  -11.2 °C 30in /  1016.3hPa North 2mph /  3.2km/h 6.9mph /  11.1km/h 58.2% 0in /  0.0mm 0 W/m2
20:19 24.4 °F /  -4.2 °C 11.8 °F /  -11.2 °C 30in /  1016.3hPa North 2mph /  3.2km/h 6.7mph /  10.8km/h 58% 0in /  0.0mm 0 W/m2
20:24 24.4 °F /  -4.2 °C 11.7 °F /  -11.3 °C 30in /  1016.3hPa NNW 3.9mph /  6.2km/h 8.5mph /  13.7km/h 57.4% 0in /  0.0mm 0 W/m2
20:29 24.6 °F /  -4.1 °C 10.8 °F /  -11.8 °C 30in /  1016.3hPa North 2mph /  3.2km/h 6.3mph /  10.1km/h 55.1% 0in /  0.0mm 0 W/m2
20:34 24.8 °F /  -4 °C 10.8 °F /  -11.8 °C 30in /  1016.3hPa North 3.2mph /  5.1km/h 6.3mph /  10.1km/h 54.7% 0in /  0.0mm 0 W/m2
20:39 24.6 °F /  -4.1 °C 10.2 °F /  -12.1 °C 30in /  1016.3hPa North 2.6mph /  4.2km/h 9.2mph /  14.8km/h 53.7% 0in /  0.0mm 0 W/m2
20:44 25 °F /  -3.9 °C 9.7 °F /  -12.4 °C 30in /  1016.3hPa North 3.4mph /  5.5km/h 9.2mph /  14.8km/h 51.7% 0in /  0.0mm 0 W/m2
20:49 25 °F /  -3.9 °C 10.4 °F /  -12 °C 30in /  1016.3hPa NNW 2.5mph /  4km/h 6mph /  9.7km/h 53.2% 0in /  0.0mm 0 W/m2
20:54 24.8 °F /  -4 °C 10.8 °F /  -11.8 °C 30in /  1016.3hPa NNW 2.1mph /  3.3km/h 5.6mph /  9km/h 54.6% 0in /  0.0mm 0 W/m2
20:59 24.8 °F /  -4 °C 9.9 °F /  -12.3 °C 30in /  1016.3hPa North 3mph /  4.9km/h 6.7mph /  10.8km/h 52.6% 0in /  0.0mm 0 W/m2
21:09 24.8 °F /  -4 °C 9.9 °F /  -12.3 °C 30in /  1016.6hPa North 3.5mph /  5.6km/h 7.2mph /  11.6km/h 52.4% 0in /  0.0mm 0 W/m2
21:14 24.8 °F /  -4 °C 9.9 °F /  -12.3 °C 30in /  1016.6hPa North 4.8mph /  7.7km/h 7.6mph /  12.2km/h 52.8% 0in /  0.0mm 0 W/m2
21:19 24.6 °F /  -4.1 °C 10.2 °F /  -12.1 °C 30in /  1016.6hPa North 4.3mph /  6.9km/h 7.6mph /  12.2km/h 53.6% 0in /  0.0mm 0 W/m2
21:24 24.6 °F /  -4.1 °C 10.6 °F /  -11.9 °C 30in /  1016.6hPa North 4.1mph /  6.6km/h 6.9mph /  11.1km/h 54.4% 0in /  0.0mm 0 W/m2
21:29 24.4 °F /  -4.2 °C 10.6 °F /  -11.9 °C 30in /  1016.6hPa North 4.7mph /  7.5km/h 8.1mph /  13km/h 55% 0in /  0.0mm 0 W/m2
21:34 24.4 °F /  -4.2 °C 10.4 °F /  -12 °C 30in /  1016.6hPa North 5.3mph /  8.6km/h 8.3mph /  13.4km/h 54.4% 0in /  0.0mm 0 W/m2
21:44 24.1 °F /  -4.4 °C 10 °F /  -12.2 °C 30in /  1016.6hPa North 3.5mph /  5.6km/h 8.3mph /  13.4km/h 54.4% 0in /  0.0mm 0 W/m2
21:49 24.1 °F /  -4.4 °C 10 °F /  -12.2 °C 30in /  1016.6hPa North 3mph /  4.9km/h 6.9mph /  11.1km/h 54.2% 0in /  0.0mm 0 W/m2
21:54 24.3 °F /  -4.3 °C 10 °F /  -12.2 °C 30in /  1016.6hPa North 2.4mph /  3.9km/h 6.3mph /  10.1km/h 54.4% 0in /  0.0mm 0 W/m2
21:59 23.9 °F /  -4.5 °C 10.8 °F /  -11.8 °C 30in /  1016.6hPa North 2.8mph /  4.5km/h 5.8mph /  9.3km/h 56.2% 0in /  0.0mm 0 W/m2
22:04 23.7 °F /  -4.6 °C 10.4 °F /  -12 °C 30in /  1016.6hPa NNW 1.7mph /  2.8km/h 5.8mph /  9.3km/h 55.8% 0in /  0.0mm 0 W/m2
22:09 23.5 °F /  -4.7 °C 9.7 °F /  -12.4 °C 30in /  1016.6hPa North 2.4mph /  3.9km/h 5.8mph /  9.3km/h 54.8% 0in /  0.0mm 0 W/m2
22:14 23.5 °F /  -4.7 °C 9.9 °F /  -12.3 °C 30in /  1016.6hPa North 2.7mph /  4.3km/h 7.4mph /  11.9km/h 55% 0in /  0.0mm 0 W/m2
22:19 23.5 °F /  -4.7 °C 10 °F /  -12.2 °C 30in /  1016.6hPa North 3.2mph /  5.1km/h 7.4mph /  11.9km/h 55.6% 0in /  0.0mm 0 W/m2
22:24 23.5 °F /  -4.7 °C 9.1 °F /  -12.7 °C 30in /  1016.6hPa North 3.2mph /  5.2km/h 6.9mph /  11.1km/h 53.5% 0in /  0.0mm 0 W/m2
22:29 23.5 °F /  -4.7 °C 9.3 °F /  -12.6 °C 30in /  1016.6hPa North 4mph /  6.5km/h 8.7mph /  14km/h 53.7% 0in /  0.0mm 0 W/m2
22:34 23.5 °F /  -4.7 °C 9.3 °F /  -12.6 °C 30in /  1016.6hPa North 3.5mph /  5.7km/h 10.3mph /  16.6km/h 53.7% 0in /  0.0mm 0 W/m2
22:39 23.9 °F /  -4.5 °C 8.2 °F /  -13.2 °C 30in /  1016.6hPa NNW 8.6mph /  13.9km/h 17.9mph /  28.8km/h 50.6% 0in /  0.0mm 0 W/m2
22:44 24.4 °F /  -4.2 °C 7.5 °F /  -13.6 °C 30in /  1016.6hPa North 8.2mph /  13.2km/h 17.9mph /  28.8km/h 48.1% 0in /  0.0mm 0 W/m2
22:49 24.6 °F /  -4.1 °C 7.7 °F /  -13.5 °C 30in /  1016.3hPa North 10.6mph /  17km/h 18.8mph /  30.3km/h 47.8% 0in /  0.0mm 0 W/m2
22:54 24.8 °F /  -4 °C 7.9 °F /  -13.4 °C 30in /  1016.6hPa North 6.7mph /  10.8km/h 16.1mph /  25.9km/h 47.9% 0in /  0.0mm 0 W/m2
22:59 24.8 °F /  -4 °C 9.1 °F /  -12.7 °C 30in /  1016.6hPa North 3.2mph /  5.2km/h 12.3mph /  19.8km/h 50.7% 0in /  0.0mm 0 W/m2
23:04 24.4 °F /  -4.2 °C 9 °F /  -12.8 °C 30in /  1016.6hPa North 3.7mph /  6km/h 8.5mph /  13.7km/h 51.3% 0in /  0.0mm 0 W/m2
23:09 24.3 °F /  -4.3 °C 8.6 °F /  -13 °C 30in /  1016.6hPa North 3.7mph /  5.9km/h 7.4mph /  11.9km/h 50.6% 0in /  0.0mm 0 W/m2
23:14 24.3 °F /  -4.3 °C 9 °F /  -12.8 °C 30in /  1016.6hPa North 2.8mph /  4.5km/h 7.4mph /  11.9km/h 51.7% 0in /  0.0mm 0 W/m2
23:19 24.1 °F /  -4.4 °C 8.6 °F /  -13 °C 30in /  1016.6hPa North 3.2mph /  5.2km/h 6mph /  9.7km/h 51.3% 0in /  0.0mm 0 W/m2
23:24 24.1 °F /  -4.4 °C 8.4 °F /  -13.1 °C 30in /  1016.6hPa North 3.9mph /  6.3km/h 9.6mph /  15.4km/h 50.8% 0in /  0.0mm 0 W/m2
23:29 23.9 °F /  -4.5 °C 8.6 °F /  -13 °C 30in /  1016.6hPa North 5.9mph /  9.5km/h 9.6mph /  15.4km/h 51.4% 0in /  0.0mm 0 W/m2
23:34 23.9 °F /  -4.5 °C 7.7 °F /  -13.5 °C 30in /  1016.6hPa North 2.9mph /  4.6km/h 9.8mph /  15.8km/h 49% 0in /  0.0mm 0 W/m2
23:39 24.3 °F /  -4.3 °C 7.9 °F /  -13.4 °C 30in /  1016.6hPa NNE 5.8mph /  9.3km/h 9.2mph /  14.8km/h 49.1% 0in /  0.0mm 0 W/m2
23:44 24.1 °F /  -4.4 °C 8.4 °F /  -13.1 °C 30in /  1016.6hPa NW 3.9mph /  6.3km/h 8.7mph /  14km/h 50.5% 0in /  0.0mm 0 W/m2
23:49 23.9 °F /  -4.5 °C 8.2 °F /  -13.2 °C 30in /  1016.6hPa NW 2.5mph /  4km/h 6.7mph /  10.8km/h 50.6% 0in /  0.0mm 0 W/m2
23:54 23.7 °F /  -4.6 °C 8.8 °F /  -12.9 °C 30in /  1016.6hPa NNW 1.4mph /  2.3km/h 4.3mph /  6.9km/h 52.3% 0in /  0.0mm 0 W/m2
23:59 23.5 °F /  -4.7 °C 8.6 °F /  -13 °C 30in /  1016.6hPa NW 2.1mph /  3.4km/h 5.4mph /  8.7km/h 52.2% 0in /  0.0mm 0 W/m2
Juneau County Weather
Compliments of Weather Underground - 2 mb